sensor_id;sensor_type;location;lat;lon;timestamp;pressure;altitude;pressure_sealevel;temperature;humidity
76352;BME280;65179;47.786;19.138;2023-03-22T00:02:20;100268.50;;;10.16;59.33
76352;BME280;65179;47.786;19.138;2023-03-22T00:04:47;100269.19;;;10.05;59.63
76352;BME280;65179;47.786;19.138;2023-03-22T00:07:13;100273.03;;;9.91;59.95
76352;BME280;65179;47.786;19.138;2023-03-22T00:09:38;100269.53;;;9.84;59.98
76352;BME280;65179;47.786;19.138;2023-03-22T00:12:04;100267.13;;;9.69;60.53
76352;BME280;65179;47.786;19.138;2023-03-22T00:14:30;100263.78;;;9.74;60.51
76352;BME280;65179;47.786;19.138;2023-03-22T00:16:55;100264.09;;;9.84;60.31
76352;BME280;65179;47.786;19.138;2023-03-22T00:19:21;100260.31;;;9.91;59.89
76352;BME280;65179;47.786;19.138;2023-03-22T00:21:47;100263.78;;;9.74;60.77
76352;BME280;65179;47.786;19.138;2023-03-22T00:24:12;100262.06;;;9.79;60.52
76352;BME280;65179;47.786;19.138;2023-03-22T00:26:38;100250.53;;;9.53;61.08
76352;BME280;65179;47.786;19.138;2023-03-22T00:29:04;100260.06;;;9.62;60.87
76352;BME280;65179;47.786;19.138;2023-03-22T00:31:29;100251.50;;;9.65;60.86
76352;BME280;65179;47.786;19.138;2023-03-22T00:33:55;100247.88;;;9.77;60.44
76352;BME280;65179;47.786;19.138;2023-03-22T00:36:20;100246.87;;;9.72;60.27
76352;BME280;65179;47.786;19.138;2023-03-22T00:38:46;100249.22;;;9.62;60.27
76352;BME280;65179;47.786;19.138;2023-03-22T00:41:16;100247.53;;;9.67;60.14
76352;BME280;65179;47.786;19.138;2023-03-22T00:43:43;100240.00;;;9.69;60.07
76352;BME280;65179;47.786;19.138;2023-03-22T00:46:10;100251.13;;;9.61;60.53
76352;BME280;65179;47.786;19.138;2023-03-22T00:48:36;100240.78;;;9.45;61.23
76352;BME280;65179;47.786;19.138;2023-03-22T00:51:02;100243.09;;;9.42;61.25
76352;BME280;65179;47.786;19.138;2023-03-22T00:53:28;100250.66;;;9.27;61.83
76352;BME280;65179;47.786;19.138;2023-03-22T00:55:55;100250.66;;;9.27;61.85
76352;BME280;65179;47.786;19.138;2023-03-22T00:58:20;100250.19;;;9.36;61.51
76352;BME280;65179;47.786;19.138;2023-03-22T01:00:47;100260.63;;;9.33;61.43
76352;BME280;65179;47.786;19.138;2023-03-22T01:03:12;100251.75;;;9.12;62.03
76352;BME280;65179;47.786;19.138;2023-03-22T01:05:38;100254.06;;;9.09;62.10
76352;BME280;65179;47.786;19.138;2023-03-22T01:08:04;100256.22;;;8.87;62.63
76352;BME280;65179;47.786;19.138;2023-03-22T01:10:40;100251.19;;;8.97;62.32
76352;BME280;65179;47.786;19.138;2023-03-22T01:13:07;100248.88;;;8.94;62.40
76352;BME280;65179;47.786;19.138;2023-03-22T01:15:32;100253.25;;;8.95;62.40
76352;BME280;65179;47.786;19.138;2023-03-22T01:17:58;100249.12;;;8.86;62.66
76352;BME280;65179;47.786;19.138;2023-03-22T01:20:24;100245.56;;;8.86;62.60
76352;BME280;65179;47.786;19.138;2023-03-22T01:22:50;100241.00;;;8.80;62.64
76352;BME280;65179;47.786;19.138;2023-03-22T01:25:16;100250.00;;;8.67;63.25
76352;BME280;65179;47.786;19.138;2023-03-22T01:27:41;100243.53;;;8.75;63.10
76352;BME280;65179;47.786;19.138;2023-03-22T01:30:07;100243.75;;;8.67;63.35
76352;BME280;65179;47.786;19.138;2023-03-22T01:32:35;100239.19;;;8.61;63.71
76352;BME280;65179;47.786;19.138;2023-03-22T01:35:00;100235.03;;;8.52;63.83
76352;BME280;65179;47.786;19.138;2023-03-22T01:37:26;100237.97;;;8.37;64.13
76352;BME280;65179;47.786;19.138;2023-03-22T01:39:55;100241.28;;;8.46;63.80
76352;BME280;65179;47.786;19.138;2023-03-22T01:42:21;100234.25;;;8.38;64.28
76352;BME280;65179;47.786;19.138;2023-03-22T01:45:48;100229.63;;;8.32;64.25
76352;BME280;65179;47.786;19.138;2023-03-22T01:47:58;100239.22;;;8.34;64.37
76352;BME280;65179;47.786;19.138;2023-03-22T01:50:26;100238.97;;;8.23;64.58
76352;BME280;65179;47.786;19.138;2023-03-22T01:52:54;100238.34;;;8.21;64.66
76352;BME280;65179;47.786;19.138;2023-03-22T01:55:22;100245.84;;;8.19;64.18
76352;BME280;65179;47.786;19.138;2023-03-22T01:57:51;100246.28;;;8.22;64.57
76352;BME280;65179;47.786;19.138;2023-03-22T02:00:18;100242.50;;;8.17;65.25
76352;BME280;65179;47.786;19.138;2023-03-22T02:02:47;100241.91;;;8.28;65.06
76352;BME280;65179;47.786;19.138;2023-03-22T02:05:14;100246.50;;;8.34;65.11
76352;BME280;65179;47.786;19.138;2023-03-22T02:07:41;100241.06;;;8.34;64.31
76352;BME280;65179;47.786;19.138;2023-03-22T02:10:13;100231.06;;;8.54;63.98
76352;BME280;65179;47.786;19.138;2023-03-22T02:15:24;100239.44;;;8.39;64.71
76352;BME280;65179;47.786;19.138;2023-03-22T02:21:03;100235.84;;;8.65;63.63
76352;BME280;65179;47.786;19.138;2023-03-22T02:26:51;100248.53;;;8.71;63.45
76352;BME280;65179;47.786;19.138;2023-03-22T02:35:25;100250.00;;;8.67;63.92
76352;BME280;65179;47.786;19.138;2023-03-22T02:45:35;100255.62;;;8.72;64.59
76352;BME280;65179;47.786;19.138;2023-03-22T02:53:16;100251.69;;;8.68;64.41
76352;BME280;65179;47.786;19.138;2023-03-22T02:55:54;100259.19;;;8.66;64.70
76352;BME280;65179;47.786;19.138;2023-03-22T02:58:37;100261.66;;;8.74;64.18
76352;BME280;65179;47.786;19.138;2023-03-22T03:01:25;100255.38;;;8.80;63.96
76352;BME280;65179;47.786;19.138;2023-03-22T03:03:55;100244.97;;;8.71;64.24
76352;BME280;65179;47.786;19.138;2023-03-22T03:06:23;100241.88;;;8.61;64.68
76352;BME280;65179;47.786;19.138;2023-03-22T03:08:52;100249.41;;;8.52;64.89
76352;BME280;65179;47.786;19.138;2023-03-22T03:11:19;100254.19;;;8.50;64.64
76352;BME280;65179;47.786;19.138;2023-03-22T03:13:46;100252.50;;;8.56;64.71
76352;BME280;65179;47.786;19.138;2023-03-22T03:16:14;100252.53;;;8.43;65.07
76352;BME280;65179;47.786;19.138;2023-03-22T03:19:06;100249.41;;;8.39;65.22
76352;BME280;65179;47.786;19.138;2023-03-22T03:24:25;100244.41;;;8.43;65.11
76352;BME280;65179;47.786;19.138;2023-03-22T03:32:31;100258.75;;;8.23;65.56
76352;BME280;65179;47.786;19.138;2023-03-22T03:35:09;100266.28;;;8.28;65.84
76352;BME280;65179;47.786;19.138;2023-03-22T03:37:48;100273.16;;;8.30;66.41
76352;BME280;65179;47.786;19.138;2023-03-22T03:40:19;100261.69;;;8.28;66.96
76352;BME280;65179;47.786;19.138;2023-03-22T03:42:49;100267.50;;;8.25;67.41
76352;BME280;65179;47.786;19.138;2023-03-22T03:45:17;100262.94;;;8.26;67.72
76352;BME280;65179;47.786;19.138;2023-03-22T03:47:47;100263.13;;;8.24;68.10
76352;BME280;65179;47.786;19.138;2023-03-22T03:50:19;100262.53;;;8.29;68.23
76352;BME280;65179;47.786;19.138;2023-03-22T03:52:45;100263.78;;;8.33;68.41
76352;BME280;65179;47.786;19.138;2023-03-22T03:55:10;100262.94;;;8.32;68.45
76352;BME280;65179;47.786;19.138;2023-03-22T03:57:36;100268.34;;;8.32;68.24
76352;BME280;65179;47.786;19.138;2023-03-22T04:00:03;100263.34;;;8.36;68.13
76352;BME280;65179;47.786;19.138;2023-03-22T04:02:29;100262.91;;;8.19;69.22
76352;BME280;65179;47.786;19.138;2023-03-22T04:04:54;100263.13;;;8.18;69.03
76352;BME280;65179;47.786;19.138;2023-03-22T04:07:19;100259.59;;;8.17;69.11
76352;BME280;65179;47.786;19.138;2023-03-22T04:09:45;100250.44;;;8.18;68.94
76352;BME280;65179;47.786;19.138;2023-03-22T04:12:10;100262.91;;;8.13;69.07
76352;BME280;65179;47.786;19.138;2023-03-22T04:14:36;100266.84;;;8.17;68.79
76352;BME280;65179;47.786;19.138;2023-03-22T04:17:02;100256.66;;;8.06;68.93
76352;BME280;65179;47.786;19.138;2023-03-22T04:19:27;100263.72;;;7.94;69.15
76352;BME280;65179;47.786;19.138;2023-03-22T04:21:53;100270.81;;;7.95;69.05
76352;BME280;65179;47.786;19.138;2023-03-22T04:24:20;100273.09;;;7.98;69.07
76352;BME280;65179;47.786;19.138;2023-03-22T04:26:46;100276.22;;;7.95;69.32
76352;BME280;65179;47.786;19.138;2023-03-22T04:29:12;100274.75;;;7.99;69.51
76352;BME280;65179;47.786;19.138;2023-03-22T04:31:38;100274.13;;;7.84;70.18
76352;BME280;65179;47.786;19.138;2023-03-22T04:34:04;100276.62;;;7.98;69.57
76352;BME280;65179;47.786;19.138;2023-03-22T04:36:35;100280.34;;;7.91;69.97
76352;BME280;65179;47.786;19.138;2023-03-22T04:39:05;100282.00;;;7.85;69.96
76352;BME280;65179;47.786;19.138;2023-03-22T04:41:32;100263.91;;;7.79;70.47
76352;BME280;65179;47.786;19.138;2023-03-22T04:43:58;100261.59;;;7.76;70.35
76352;BME280;65179;47.786;19.138;2023-03-22T04:46:29;100267.63;;;7.78;70.08
76352;BME280;65179;47.786;19.138;2023-03-22T04:48:54;100276.16;;;7.69;70.32
76352;BME280;65179;47.786;19.138;2023-03-22T04:51:20;100276.75;;;7.57;70.56
76352;BME280;65179;47.786;19.138;2023-03-22T04:53:45;100289.03;;;7.60;70.43
76352;BME280;65179;47.786;19.138;2023-03-22T04:56:13;100286.50;;;7.52;70.71
76352;BME280;65179;47.786;19.138;2023-03-22T04:58:40;100284.19;;;7.42;71.06
76352;BME280;65179;47.786;19.138;2023-03-22T05:01:08;100281.47;;;7.42;70.89
76352;BME280;65179;47.786;19.138;2023-03-22T05:03:34;100283.97;;;7.44;70.93
76352;BME280;65179;47.786;19.138;2023-03-22T05:06:01;100281.09;;;7.52;70.71
76352;BME280;65179;47.786;19.138;2023-03-22T05:08:29;100287.31;;;7.52;70.69
76352;BME280;65179;47.786;19.138;2023-03-22T05:10:56;100291.25;;;7.50;70.73
76352;BME280;65179;47.786;19.138;2023-03-22T05:13:23;100287.94;;;7.48;70.76
76352;BME280;65179;47.786;19.138;2023-03-22T05:15:49;100292.69;;;7.39;71.21
76352;BME280;65179;47.786;19.138;2023-03-22T05:18:16;100309.50;;;7.35;71.18
76352;BME280;65179;47.786;19.138;2023-03-22T05:20:42;100301.97;;;7.24;71.67
76352;BME280;65179;47.786;19.138;2023-03-22T05:23:08;100311.78;;;7.31;71.55
76352;BME280;65179;47.786;19.138;2023-03-22T05:25:35;100300.75;;;7.33;71.59
76352;BME280;65179;47.786;19.138;2023-03-22T05:28:01;100304.72;;;7.37;71.64
76352;BME280;65179;47.786;19.138;2023-03-22T05:30:28;100308.91;;;7.39;71.84
76352;BME280;65179;47.786;19.138;2023-03-22T05:32:59;100301.22;;;7.49;71.64
76352;BME280;65179;47.786;19.138;2023-03-22T05:35:28;100299.00;;;7.59;71.50
76352;BME280;65179;47.786;19.138;2023-03-22T05:37:53;100310.19;;;7.56;71.90
76352;BME280;65179;47.786;19.138;2023-03-22T05:40:19;100313.97;;;7.55;71.88
76352;BME280;65179;47.786;19.138;2023-03-22T05:42:45;100314.03;;;7.75;71.05
76352;BME280;65179;47.786;19.138;2023-03-22T05:45:10;100312.75;;;7.78;71.57
76352;BME280;65179;47.786;19.138;2023-03-22T05:47:36;100323.19;;;7.87;71.15
76352;BME280;65179;47.786;19.138;2023-03-22T05:50:05;100314.84;;;7.76;72.01
76352;BME280;65179;47.786;19.138;2023-03-22T05:52:31;100312.56;;;7.79;72.07
76352;BME280;65179;47.786;19.138;2023-03-22T05:54:56;100314.06;;;8.01;71.17
76352;BME280;65179;47.786;19.138;2023-03-22T05:57:21;100320.75;;;8.12;70.89
76352;BME280;65179;47.786;19.138;2023-03-22T05:59:47;100318.25;;;8.17;70.42
76352;BME280;65179;47.786;19.138;2023-03-22T06:02:12;100316.59;;;8.09;70.46
76352;BME280;65179;47.786;19.138;2023-03-22T06:04:38;100321.16;;;8.09;70.65
76352;BME280;65179;47.786;19.138;2023-03-22T06:07:06;100328.66;;;8.20;70.41
76352;BME280;65179;47.786;19.138;2023-03-22T06:09:32;100331.78;;;8.23;70.23
76352;BME280;65179;47.786;19.138;2023-03-22T06:11:58;100328.66;;;8.13;70.34
76352;BME280;65179;47.786;19.138;2023-03-22T06:14:23;100331.09;;;7.95;70.77
76352;BME280;65179;47.786;19.138;2023-03-22T06:16:49;100332.75;;;7.83;70.92
76352;BME280;65179;47.786;19.138;2023-03-22T06:19:14;100342.37;;;8.05;70.34
76352;BME280;65179;47.786;19.138;2023-03-22T06:21:40;100342.41;;;8.12;69.76
76352;BME280;65179;47.786;19.138;2023-03-22T06:24:05;100336.78;;;8.13;69.47
76352;BME280;65179;47.786;19.138;2023-03-22T06:26:31;100341.63;;;8.31;68.99
76352;BME280;65179;47.786;19.138;2023-03-22T06:28:56;100347.44;;;8.28;69.08
76352;BME280;65179;47.786;19.138;2023-03-22T06:31:22;100342.88;;;8.48;68.62
76352;BME280;65179;47.786;19.138;2023-03-22T06:33:47;100344.75;;;8.61;68.35
76352;BME280;65179;47.786;19.138;2023-03-22T06:36:13;100339.72;;;8.77;67.89
76352;BME280;65179;47.786;19.138;2023-03-22T06:38:38;100338.91;;;8.90;67.78
76352;BME280;65179;47.786;19.138;2023-03-22T06:41:04;100347.03;;;9.03;67.62
76352;BME280;65179;47.786;19.138;2023-03-22T06:43:29;100359.88;;;9.21;67.17
76352;BME280;65179;47.786;19.138;2023-03-22T06:45:55;100359.44;;;9.30;67.22
76352;BME280;65179;47.786;19.138;2023-03-22T06:48:22;100354.00;;;9.37;67.33
76352;BME280;65179;47.786;19.138;2023-03-22T06:50:47;100347.28;;;9.52;67.20
76352;BME280;65179;47.786;19.138;2023-03-22T06:53:13;100350.97;;;9.71;66.63
76352;BME280;65179;47.786;19.138;2023-03-22T06:55:38;100352.37;;;9.80;66.68
76352;BME280;65179;47.786;19.138;2023-03-22T06:58:04;100364.22;;;9.92;66.57
76352;BME280;65179;47.786;19.138;2023-03-22T07:00:30;100365.84;;;10.00;66.71
76352;BME280;65179;47.786;19.138;2023-03-22T07:02:57;100351.63;;;10.11;66.46
76352;BME280;65179;47.786;19.138;2023-03-22T07:05:23;100353.47;;;10.17;66.39
76352;BME280;65179;47.786;19.138;2023-03-22T07:07:49;100366.13;;;10.29;66.68
76352;BME280;65179;47.786;19.138;2023-03-22T07:10:15;100356.47;;;10.33;66.68
76352;BME280;65179;47.786;19.138;2023-03-22T07:12:40;100361.81;;;10.46;66.43
76352;BME280;65179;47.786;19.138;2023-03-22T07:15:06;100358.41;;;10.57;66.51
76352;BME280;65179;47.786;19.138;2023-03-22T07:17:32;100361.00;;;10.71;66.50
76352;BME280;65179;47.786;19.138;2023-03-22T07:19:57;100355.22;;;10.85;66.87
76352;BME280;65179;47.786;19.138;2023-03-22T07:22:23;100356.56;;;11.01;66.23
76352;BME280;65179;47.786;19.138;2023-03-22T07:24:50;100357.69;;;11.11;66.56
76352;BME280;65179;47.786;19.138;2023-03-22T07:27:16;100360.97;;;11.20;66.05
76352;BME280;65179;47.786;19.138;2023-03-22T07:29:42;100355.69;;;11.25;65.64
76352;BME280;65179;47.786;19.138;2023-03-22T07:32:08;100357.22;;;11.39;65.30
76352;BME280;65179;47.786;19.138;2023-03-22T07:34:33;100347.62;;;11.36;65.63
76352;BME280;65179;47.786;19.138;2023-03-22T07:36:59;100352.00;;;11.56;65.72
76352;BME280;65179;47.786;19.138;2023-03-22T07:39:27;100358.03;;;11.58;65.28
76352;BME280;65179;47.786;19.138;2023-03-22T07:41:53;100345.53;;;11.75;65.00
76352;BME280;65179;47.786;19.138;2023-03-22T07:44:19;100357.69;;;11.72;64.02
76352;BME280;65179;47.786;19.138;2023-03-22T07:46:45;100359.19;;;11.86;64.02
76352;BME280;65179;47.786;19.138;2023-03-22T07:49:10;100359.78;;;11.88;63.23
76352;BME280;65179;47.786;19.138;2023-03-22T07:51:36;100361.31;;;11.84;62.44
76352;BME280;65179;47.786;19.138;2023-03-22T07:54:01;100352.75;;;11.99;61.95
76352;BME280;65179;47.786;19.138;2023-03-22T07:56:27;100348.41;;;12.09;62.14
76352;BME280;65179;47.786;19.138;2023-03-22T07:58:52;100350.06;;;12.10;60.85
76352;BME280;65179;47.786;19.138;2023-03-22T08:01:18;100352.06;;;12.15;60.61
76352;BME280;65179;47.786;19.138;2023-03-22T08:03:43;100353.56;;;12.29;59.83
76352;BME280;65179;47.786;19.138;2023-03-22T08:06:09;100358.13;;;12.47;59.80
76352;BME280;65179;47.786;19.138;2023-03-22T08:08:37;100358.06;;;12.76;58.77
76352;BME280;65179;47.786;19.138;2023-03-22T08:11:04;100355.44;;;12.93;58.10
76352;BME280;65179;47.786;19.138;2023-03-22T08:13:30;100361.31;;;13.20;57.61
76352;BME280;65179;47.786;19.138;2023-03-22T08:15:55;100366.84;;;13.36;57.31
76352;BME280;65179;47.786;19.138;2023-03-22T08:18:21;100370.78;;;13.29;57.14
76352;BME280;65179;47.786;19.138;2023-03-22T08:20:52;100368.06;;;13.29;56.60
76352;BME280;65179;47.786;19.138;2023-03-22T08:23:18;100354.88;;;13.37;56.20
76352;BME280;65179;47.786;19.138;2023-03-22T08:25:44;100365.66;;;13.55;56.41
76352;BME280;65179;47.786;19.138;2023-03-22T08:28:09;100359.00;;;13.63;55.39
76352;BME280;65179;47.786;19.138;2023-03-22T08:30:36;100360.22;;;13.55;55.67
76352;BME280;65179;47.786;19.138;2023-03-22T08:33:02;100358.28;;;13.67;55.91
76352;BME280;65179;47.786;19.138;2023-03-22T08:35:28;100352.69;;;13.62;54.94
76352;BME280;65179;47.786;19.138;2023-03-22T08:37:56;100356.59;;;13.66;54.66
76352;BME280;65179;47.786;19.138;2023-03-22T08:40:22;100348.19;;;13.68;54.36
76352;BME280;65179;47.786;19.138;2023-03-22T08:42:48;100343.44;;;13.75;54.11
76352;BME280;65179;47.786;19.138;2023-03-22T08:45:14;100345.22;;;13.69;54.88
76352;BME280;65179;47.786;19.138;2023-03-22T08:47:40;100349.94;;;13.86;54.75
76352;BME280;65179;47.786;19.138;2023-03-22T08:50:06;100348.06;;;13.75;54.80
76352;BME280;65179;47.786;19.138;2023-03-22T08:52:54;100352.81;;;13.67;53.74
76352;BME280;65179;47.786;19.138;2023-03-22T08:55:20;100352.44;;;13.76;53.95
76352;BME280;65179;47.786;19.138;2023-03-22T08:57:46;100359.25;;;13.61;54.09
76352;BME280;65179;47.786;19.138;2023-03-22T09:00:15;100352.63;;;13.57;53.63
76352;BME280;65179;47.786;19.138;2023-03-22T09:02:42;100361.34;;;13.71;53.97
76352;BME280;65179;47.786;19.138;2023-03-22T09:05:08;100365.41;;;13.68;53.49
76352;BME280;65179;47.786;19.138;2023-03-22T09:07:33;100362.56;;;13.63;53.40
76352;BME280;65179;47.786;19.138;2023-03-22T09:09:59;100359.94;;;13.68;53.36
76352;BME280;65179;47.786;19.138;2023-03-22T09:12:24;100360.16;;;13.67;53.93
76352;BME280;65179;47.786;19.138;2023-03-22T09:14:51;100360.62;;;13.76;53.83
76352;BME280;65179;47.786;19.138;2023-03-22T09:17:18;100358.28;;;13.67;53.40
76352;BME280;65179;47.786;19.138;2023-03-22T09:19:44;100363.94;;;13.78;53.10
76352;BME280;65179;47.786;19.138;2023-03-22T09:22:12;100355.84;;;13.83;53.43
76352;BME280;65179;47.786;19.138;2023-03-22T09:24:38;100356.94;;;13.82;53.38
76352;BME280;65179;47.786;19.138;2023-03-22T09:27:04;100351.09;;;13.90;53.34
76352;BME280;65179;47.786;19.138;2023-03-22T09:29:31;100354.59;;;14.02;53.13
76352;BME280;65179;47.786;19.138;2023-03-22T09:31:57;100355.59;;;13.96;53.09
76352;BME280;65179;47.786;19.138;2023-03-22T09:34:22;100342.50;;;13.98;52.86
76352;BME280;65179;47.786;19.138;2023-03-22T09:36:48;100340.38;;;14.00;52.95
76352;BME280;65179;47.786;19.138;2023-03-22T09:39:13;100340.38;;;14.00;52.88
76352;BME280;65179;47.786;19.138;2023-03-22T09:41:44;100332.56;;;14.20;52.87
76352;BME280;65179;47.786;19.138;2023-03-22T09:44:23;100329.09;;;14.24;52.48
76352;BME280;65179;47.786;19.138;2023-03-22T09:46:53;100334.03;;;14.39;52.47
76352;BME280;65179;47.786;19.138;2023-03-22T09:49:23;100338.50;;;14.45;52.15
76352;BME280;65179;47.786;19.138;2023-03-22T09:51:51;100333.97;;;14.51;51.94
76352;BME280;65179;47.786;19.138;2023-03-22T09:54:20;100330.41;;;14.67;51.75
76352;BME280;65179;47.786;19.138;2023-03-22T09:56:54;100333.72;;;14.52;52.12
76352;BME280;65179;47.786;19.138;2023-03-22T10:02:52;100332.88;;;14.52;51.35
76352;BME280;65179;47.786;19.138;2023-03-22T10:05:45;100333.56;;;14.75;51.57
76352;BME280;65179;47.786;19.138;2023-03-22T10:08:28;100321.63;;;14.81;51.07
76352;BME280;65179;47.786;19.138;2023-03-22T10:10:58;100325.59;;;14.90;51.04
76352;BME280;65179;47.786;19.138;2023-03-22T10:13:38;100320.06;;;14.85;51.01
76352;BME280;65179;47.786;19.138;2023-03-22T10:16:09;100319.78;;;15.03;50.83
76352;BME280;65179;47.786;19.138;2023-03-22T10:18:48;100329.09;;;15.02;50.67
76352;BME280;65179;47.786;19.138;2023-03-22T10:21:17;100327.06;;;15.14;50.37
76352;BME280;65179;47.786;19.138;2023-03-22T10:24:15;100330.97;;;15.18;50.20
76352;BME280;65179;47.786;19.138;2023-03-22T10:26:45;100327.66;;;15.16;49.83
76352;BME280;65179;47.786;19.138;2023-03-22T10:32:15;100322.97;;;15.34;49.72
76352;BME280;65179;47.786;19.138;2023-03-22T10:34:42;100326.22;;;15.69;48.72
76352;BME280;65179;47.786;19.138;2023-03-22T10:37:16;100326.19;;;15.90;49.22
76352;BME280;65179;47.786;19.138;2023-03-22T10:39:50;100329.69;;;15.86;49.07
76352;BME280;65179;47.786;19.138;2023-03-22T10:42:21;100329.13;;;15.62;49.45
76352;BME280;65179;47.786;19.138;2023-03-22T10:44:48;100325.81;;;15.82;50.10
76352;BME280;65179;47.786;19.138;2023-03-22T10:47:16;100317.22;;;15.95;49.37
76352;BME280;65179;47.786;19.138;2023-03-22T10:49:47;100321.91;;;16.00;49.13
76352;BME280;65179;47.786;19.138;2023-03-22T10:52:35;100310.09;;;15.72;49.54
76352;BME280;65179;47.786;19.138;2023-03-22T10:55:09;100315.75;;;15.87;49.14
76352;BME280;65179;47.786;19.138;2023-03-22T10:57:35;100307.50;;;15.61;49.33
76352;BME280;65179;47.786;19.138;2023-03-22T11:00:09;100318.25;;;15.46;49.73
76352;BME280;65179;47.786;19.138;2023-03-22T11:02:51;100311.09;;;15.45;50.08
76352;BME280;65179;47.786;19.138;2023-03-22T11:05:24;100306.78;;;15.49;49.89
76352;BME280;65179;47.786;19.138;2023-03-22T11:07:51;100317.31;;;15.40;49.97
76352;BME280;65179;47.786;19.138;2023-03-22T11:10:29;100301.53;;;15.26;50.25
76352;BME280;65179;47.786;19.138;2023-03-22T11:15:38;100290.22;;;15.39;50.68
76352;BME280;65179;47.786;19.138;2023-03-22T11:18:07;100286.12;;;15.19;50.69
76352;BME280;65179;47.786;19.138;2023-03-22T11:20:39;100283.56;;;15.13;50.80
76352;BME280;65179;47.786;19.138;2023-03-22T11:23:05;100279.12;;;15.29;50.90
76352;BME280;65179;47.786;19.138;2023-03-22T11:25:35;100276.06;;;15.25;50.53
76352;BME280;65179;47.786;19.138;2023-03-22T11:28:12;100274.25;;;15.31;50.42
76352;BME280;65179;47.786;19.138;2023-03-22T11:30:39;100275.81;;;15.27;50.54
76352;BME280;65179;47.786;19.138;2023-03-22T11:35:38;100275.44;;;15.40;49.86
76352;BME280;65179;47.786;19.138;2023-03-22T11:38:04;100266.06;;;15.36;50.30
76352;BME280;65179;47.786;19.138;2023-03-22T11:40:34;100274.78;;;15.49;50.02
76352;BME280;65179;47.786;19.138;2023-03-22T11:45:36;100268.59;;;15.59;49.90
76352;BME280;65179;47.786;19.138;2023-03-22T11:48:08;100255.78;;;15.64;50.15
76352;BME280;65179;47.786;19.138;2023-03-22T11:50:36;100258.16;;;15.56;49.76
76352;BME280;65179;47.786;19.138;2023-03-22T11:53:06;100259.38;;;15.43;49.88
76352;BME280;65179;47.786;19.138;2023-03-22T11:55:35;100258.50;;;15.43;50.14
76352;BME280;65179;47.786;19.138;2023-03-22T11:58:05;100254.19;;;15.47;49.88
76352;BME280;65179;47.786;19.138;2023-03-22T12:00:34;100253.81;;;15.60;49.97
76352;BME280;65179;47.786;19.138;2023-03-22T12:03:14;100252.28;;;15.69;49.82
76352;BME280;65179;47.786;19.138;2023-03-22T12:05:42;100258.25;;;15.66;48.95
76352;BME280;65179;47.786;19.138;2023-03-22T12:08:41;100257.66;;;15.59;49.60
76352;BME280;65179;47.786;19.138;2023-03-22T12:11:14;100256.56;;;15.60;49.87
76352;BME280;65179;47.786;19.138;2023-03-22T12:13:59;100262.66;;;15.67;49.91
76352;BME280;65179;47.786;19.138;2023-03-22T12:16:29;100254.19;;;15.68;49.12
76352;BME280;65179;47.786;19.138;2023-03-22T12:19:21;100263.25;;;15.69;49.70
76352;BME280;65179;47.786;19.138;2023-03-22T12:21:50;100259.28;;;15.60;48.89
76352;BME280;65179;47.786;19.138;2023-03-22T12:24:28;100254.66;;;15.60;49.55
76352;BME280;65179;47.786;19.138;2023-03-22T12:26:59;100258.16;;;15.56;49.14
76352;BME280;65179;47.786;19.138;2023-03-22T12:29:28;100248.97;;;15.67;49.09
76352;BME280;65179;47.786;19.138;2023-03-22T12:34:55;100246.81;;;15.69;48.77
76352;BME280;65179;47.786;19.138;2023-03-22T12:37:32;100250.22;;;15.81;48.46
76352;BME280;65179;47.786;19.138;2023-03-22T12:40:06;100242.59;;;15.83;48.23
76352;BME280;65179;47.786;19.138;2023-03-22T12:42:49;100239.91;;;15.88;47.96
76352;BME280;65179;47.786;19.138;2023-03-22T12:45:20;100241.50;;;15.84;47.60
76352;BME280;65179;47.786;19.138;2023-03-22T12:47:50;100252.50;;;15.89;47.61
76352;BME280;65179;47.786;19.138;2023-03-22T12:50:24;100251.47;;;15.95;47.29
76352;BME280;65179;47.786;19.138;2023-03-22T12:52:53;100249.94;;;16.04;47.47
76352;BME280;65179;47.786;19.138;2023-03-22T12:55:30;100244.75;;;16.08;47.38
76352;BME280;65179;47.786;19.138;2023-03-22T12:57:57;100235.25;;;16.15;47.12
76352;BME280;65179;47.786;19.138;2023-03-22T13:02:57;100232.19;;;16.43;46.63
76352;BME280;65179;47.786;19.138;2023-03-22T13:05:29;100236.63;;;16.49;46.29
76352;BME280;65179;47.786;19.138;2023-03-22T13:07:56;100229.84;;;16.52;45.75
76352;BME280;65179;47.786;19.138;2023-03-22T13:28:32;100213.34;;;16.94;45.43
76352;BME280;65179;47.786;19.138;2023-03-22T13:35:00;100205.72;;;17.01;45.56
76352;BME280;65179;47.786;19.138;2023-03-22T13:40:00;100206.34;;;17.18;44.74
76352;BME280;65179;47.786;19.138;2023-03-22T13:42:35;100195.94;;;17.15;44.65
76352;BME280;65179;47.786;19.138;2023-03-22T13:45:02;100190.84;;;16.92;44.19
76352;BME280;65179;47.786;19.138;2023-03-22T13:47:45;100192.22;;;16.89;44.66
76352;BME280;65179;47.786;19.138;2023-03-22T13:50:21;100194.47;;;16.97;45.20
76352;BME280;65179;47.786;19.138;2023-03-22T13:53:14;100197.13;;;16.87;45.20
76352;BME280;65179;47.786;19.138;2023-03-22T14:01:35;100181.06;;;17.11;45.58
76352;BME280;65179;47.786;19.138;2023-03-22T14:04:15;100173.66;;;17.06;44.17
76352;BME280;65179;47.786;19.138;2023-03-22T14:09:50;100178.34;;;17.16;45.11
76352;BME280;65179;47.786;19.138;2023-03-22T14:12:27;100181.09;;;17.16;45.04
76352;BME280;65179;47.786;19.138;2023-03-22T14:14:58;100175.63;;;17.21;44.84
76352;BME280;65179;47.786;19.138;2023-03-22T14:17:41;100171.25;;;17.25;44.12
76352;BME280;65179;47.786;19.138;2023-03-22T14:20:18;100179.22;;;17.21;44.69
76352;BME280;65179;47.786;19.138;2023-03-22T14:22:50;100180.03;;;17.22;44.49
76352;BME280;65179;47.786;19.138;2023-03-22T14:25:20;100170.16;;;17.21;44.46